Terminal Aerodrome Forecast
Issued by NWS Bismarck, ND

Home | Current Version | Previous Version | Graphics & Text | Print | Product List | Glossary On
Versions: 1 2 3 4 5 6 7 8 9 10 11 12 13 14 15 16 17 18 19 20 21 22 23 24 25
000
FTUS43 KBIS 271200 AAB
TAFISN
TAF AMD
KISN 271241Z 2713/2812 28017G23KT P6SM BKN015
     FM271400 28020G30KT P6SM -SHRA OVC015
      TEMPO 2714/2718 -SHRA BKN007 OVC015
     FM272100 31019G28KT P6SM -SHRA SCT015 OVC025
     FM280000 32018G24KT 6SM -SHRASN BR OVC015
     FM280600 31014KT 6SM BR OVC012=

USA.gov is the U.S. government's official web portal to all federal, state and local government web resources and services.